createdAt,value
2023-02-08T00:01:23.065Z,100675.78
2023-02-08T00:03:51.467Z,100669.88
2023-02-08T00:06:20.738Z,100663.47
2023-02-08T00:08:49.116Z,100659.41
2023-02-08T00:11:19.316Z,100667.19
2023-02-08T00:13:47.812Z,100660.09
2023-02-08T00:16:18.533Z,100659.75
2023-02-08T00:18:46.932Z,100657.69
2023-02-08T00:21:16.820Z,100661.44
2023-02-08T00:23:45.449Z,100664.81
2023-02-08T00:26:14.845Z,100669.53
2023-02-08T00:28:44.612Z,100664.13
2023-02-08T00:31:13.201Z,100659.06
2023-02-08T00:33:41.676Z,100669.88
2023-02-08T00:36:11.907Z,100672.91
2023-02-08T00:38:40.316Z,100663.13
2023-02-08T00:41:08.969Z,100661.78
2023-02-08T00:43:37.675Z,100655.03
2023-02-08T00:46:08.195Z,100656.72
2023-02-08T00:48:36.612Z,100649.78
2023-02-08T00:51:07.031Z,100650.13
2023-02-08T00:53:37.208Z,100649.28
2023-02-08T00:56:06.753Z,100653.31
2023-02-08T00:58:36.104Z,100654.31
2023-02-08T01:01:07.545Z,100653.66
2023-02-08T01:03:36.738Z,100647.59
2023-02-08T01:06:08.134Z,100642.19
2023-02-08T01:08:36.463Z,100642.69
2023-02-08T01:11:07.010Z,100647.75
2023-02-08T01:13:35.428Z,100643.72
2023-02-08T01:16:10.227Z,100641.00
2023-02-08T01:18:38.883Z,100638.47
2023-02-08T01:21:09.236Z,100637.81
2023-02-08T01:23:38.143Z,100631.06
2023-02-08T01:26:07.267Z,100630.91
2023-02-08T01:28:36.191Z,100627.34
2023-02-08T01:31:09.068Z,100637.81
2023-02-08T01:33:37.905Z,100633.91
2023-02-08T01:36:07.811Z,100628.19
2023-02-08T01:38:36.379Z,100630.72
2023-02-08T01:41:06.019Z,100624.47
2023-02-08T01:43:44.175Z,100633.09
2023-02-08T01:46:14.014Z,100641.00
2023-02-08T01:48:42.677Z,100647.59
2023-02-08T01:51:16.368Z,100644.91
2023-02-08T01:53:45.060Z,100655.69
2023-02-08T01:56:17.331Z,100651.66
2023-02-08T01:58:49.243Z,100639.69
2023-02-08T02:01:19.488Z,100650.66
2023-02-08T02:03:48.135Z,100640.69
2023-02-08T02:06:19.372Z,100639.66
2023-02-08T02:08:52.896Z,100644.91
2023-02-08T02:11:22.040Z,100637.81
2023-02-08T02:13:51.302Z,100640.84
2023-02-08T02:16:21.927Z,100633.09
2023-02-08T02:18:50.231Z,100638.00
2023-02-08T02:21:32.098Z,100639.63
2023-02-08T02:24:25.271Z,100637.75
2023-02-08T02:27:26.276Z,100634.22
2023-02-08T02:30:22.432Z,100636.78
2023-02-08T02:33:01.566Z,100638.09
2023-02-08T02:35:34.076Z,100648.59
2023-02-08T02:38:09.561Z,100645.25
2023-02-08T02:40:45.258Z,100650.31
2023-02-08T02:43:36.115Z,100643.38
2023-02-08T02:46:07.485Z,100647.25
2023-02-08T02:48:42.764Z,100657.19
2023-02-08T02:51:14.208Z,100652.31
2023-02-08T02:53:47.959Z,100648.59
2023-02-08T02:56:20.050Z,100657.31
2023-02-08T02:58:48.957Z,100665.25
2023-02-08T03:01:26.248Z,100678.72
2023-02-08T03:03:57.751Z,100677.38
2023-02-08T03:06:35.952Z,100680.63
2023-02-08T03:09:30.858Z,100684.69
2023-02-08T03:12:05.574Z,100679.56
2023-02-08T03:14:43.298Z,100681.91
2023-02-08T03:17:22.973Z,100676.84
2023-02-08T03:20:00.308Z,100686.28
2023-02-08T03:22:36.303Z,100685.13
2023-02-08T03:25:09.428Z,100686.31
2023-02-08T03:27:41.076Z,100687.31
2023-02-08T03:30:13.098Z,100682.22
2023-02-08T03:32:44.686Z,100676.84
2023-02-08T03:35:18.062Z,100686.47
2023-02-08T03:37:48.920Z,100688.31
2023-02-08T03:40:19.875Z,100692.44
2023-02-08T03:42:49.346Z,100696.25
2023-02-08T03:45:21.368Z,100689.72
2023-02-08T03:47:51.232Z,100695.47
2023-02-08T03:50:22.717Z,100696.19
2023-02-08T03:52:52.106Z,100690.19
2023-02-08T03:55:23.534Z,100696.31
2023-02-08T03:57:54.296Z,100696.91
2023-02-08T04:00:23.642Z,100700.75
2023-02-08T04:02:56.173Z,100689.34
2023-02-08T04:05:26.796Z,100698.50
2023-02-08T04:07:55.754Z,100709.50
2023-02-08T04:10:24.594Z,100699.22
2023-02-08T04:12:52.936Z,100696.63
2023-02-08T04:15:22.128Z,100695.13
2023-02-08T04:17:50.757Z,100702.38
2023-02-08T04:20:19.526Z,100691.81
2023-02-08T04:22:49.227Z,100690.66
2023-02-08T04:25:18.851Z,100697.78
2023-02-08T04:27:47.559Z,100688.09
2023-02-08T04:30:16.682Z,100692.72
2023-02-08T04:32:45.112Z,100694.69
2023-02-08T04:35:13.734Z,100701.47
2023-02-08T04:37:42.226Z,100701.47
2023-02-08T04:40:13.582Z,100700.66
2023-02-08T04:42:41.891Z,100706.03
2023-02-08T04:45:11.644Z,100694.38
2023-02-08T04:47:40.043Z,100696.44
2023-02-08T04:50:08.834Z,100696.22
2023-02-08T04:52:37.255Z,100699.03
2023-02-08T04:55:06.390Z,100707.25
2023-02-08T04:57:36.164Z,100696.88
2023-02-08T05:00:05.309Z,100708.69
2023-02-08T05:02:33.719Z,100710.16
2023-02-08T05:05:02.606Z,100712.47
2023-02-08T05:07:31.848Z,100710.75
2023-02-08T05:10:00.395Z,100718.19
2023-02-08T05:12:28.675Z,100714.38
2023-02-08T05:14:58.787Z,100714.31
2023-02-08T05:17:27.147Z,100724.31
2023-02-08T05:19:55.897Z,100723.81
2023-02-08T05:22:24.259Z,100714.38
2023-02-08T05:24:52.980Z,100724.41
2023-02-08T05:27:21.249Z,100718.00
2023-02-08T05:29:50.040Z,100722.47
2023-02-08T05:32:20.080Z,100726.09
2023-02-08T05:34:49.097Z,100722.72
2023-02-08T05:37:17.353Z,100722.88
2023-02-08T05:39:45.859Z,100719.22
2023-02-08T05:42:14.285Z,100713.34
2023-02-08T05:44:42.855Z,100717.16
2023-02-08T05:47:11.185Z,100726.41
2023-02-08T05:49:41.084Z,100739.81
2023-02-08T05:52:09.821Z,100730.16
2023-02-08T05:54:38.385Z,100739.03
2023-02-08T05:57:07.044Z,100740.28
2023-02-08T05:59:35.838Z,100742.69
2023-02-08T06:02:04.170Z,100744.38
2023-02-08T06:04:32.970Z,100745.66
2023-02-08T06:07:02.673Z,100742.91
2023-02-08T06:09:31.319Z,100743.84
2023-02-08T06:11:59.746Z,100748.91
2023-02-08T06:14:28.278Z,100746.31
2023-02-08T06:16:56.862Z,100749.88
2023-02-08T06:19:25.562Z,100749.91
2023-02-08T06:21:54.013Z,100756.63
2023-02-08T06:24:25.518Z,100746.28
2023-02-08T06:26:53.617Z,100751.97
2023-02-08T06:29:22.160Z,100758.47
2023-02-08T06:31:50.603Z,100760.94
2023-02-08T06:34:19.508Z,100759.94
2023-02-08T06:36:47.942Z,100744.25
2023-02-08T06:39:16.581Z,100757.81
2023-02-08T06:41:46.339Z,100762.88
2023-02-08T06:44:14.943Z,100765.38
2023-02-08T06:46:43.197Z,100764.00
2023-02-08T06:49:12.706Z,100771.69
2023-02-08T06:51:41.645Z,100772.28
2023-02-08T06:54:11.108Z,100777.59
2023-02-08T06:56:39.678Z,100773.13
2023-02-08T06:59:09.706Z,100784.19
2023-02-08T07:01:38.016Z,100793.28
2023-02-08T07:04:07.127Z,100792.22
2023-02-08T07:06:35.458Z,100794.53
2023-02-08T07:09:04.406Z,100794.81
2023-02-08T07:11:33.122Z,100795.19
2023-02-08T07:14:01.964Z,100788.81
2023-02-08T07:16:31.632Z,100801.94
2023-02-08T07:19:00.315Z,100807.03
2023-02-08T07:21:28.557Z,100800.59
2023-02-08T07:23:57.307Z,100801.47
2023-02-08T07:26:25.610Z,100804.41
2023-02-08T07:28:54.436Z,100802.75
2023-02-08T07:31:23.208Z,100802.97
2023-02-08T07:33:53.260Z,100809.06
2023-02-08T07:36:21.674Z,100806.59
2023-02-08T07:38:50.189Z,100799.75
2023-02-08T07:41:18.613Z,100813.97
2023-02-08T07:43:47.348Z,100814.00
2023-02-08T07:46:17.230Z,100813.91
2023-02-08T07:48:45.932Z,100811.22
2023-02-08T07:51:15.650Z,100808.22
2023-02-08T07:53:44.299Z,100811.97
2023-02-08T07:56:12.695Z,100812.84
2023-02-08T07:58:41.874Z,100810.06
2023-02-08T08:01:21.578Z,100810.38
2023-02-08T08:03:51.133Z,100823.84
2023-02-08T08:06:21.985Z,100824.69
2023-02-08T08:08:54.408Z,100827.13
2023-02-08T08:11:23.022Z,100830.41
2023-02-08T08:13:52.617Z,100837.03
2023-02-08T08:16:21.497Z,100833.97
2023-02-08T08:18:50.882Z,100851.59
2023-02-08T08:21:20.767Z,100843.69
2023-02-08T08:23:49.261Z,100840.53
2023-02-08T08:26:19.403Z,100833.22
2023-02-08T08:28:48.387Z,100845.19
2023-02-08T08:31:18.913Z,100835.00
2023-02-08T08:33:48.009Z,100837.56
2023-02-08T08:36:16.615Z,100839.16
2023-02-08T08:38:46.609Z,100832.91
2023-02-08T08:41:17.346Z,100840.31
2023-02-08T08:43:46.344Z,100831.94
2023-02-08T08:46:15.318Z,100834.09
2023-02-08T08:48:43.891Z,100836.50
2023-02-08T08:51:12.348Z,100830.03
2023-02-08T08:53:40.977Z,100833.78
2023-02-08T08:56:10.795Z,100838.19
2023-02-08T08:58:39.887Z,100840.66
2023-02-08T09:01:08.167Z,100849.72
2023-02-08T09:03:37.149Z,100850.84
2023-02-08T09:06:05.859Z,100851.91
2023-02-08T09:08:35.018Z,100839.00
2023-02-08T09:11:07.793Z,100854.03
2023-02-08T09:13:38.182Z,100847.28
2023-02-08T09:16:09.624Z,100838.19
2023-02-08T09:18:38.779Z,100849.59
2023-02-08T09:21:07.882Z,100861.78
2023-02-08T09:23:36.462Z,100855.06
2023-02-08T09:26:05.404Z,100857.81
2023-02-08T09:28:34.187Z,100851.94
2023-02-08T09:31:10.511Z,100859.84
2023-02-08T09:33:39.521Z,100855.72
2023-02-08T09:36:08.679Z,100858.44
2023-02-08T09:38:37.441Z,100859.22
2023-02-08T09:41:18.887Z,100853.19
2023-02-08T09:43:53.793Z,100855.75
2023-02-08T09:46:26.069Z,100851.50
2023-02-08T09:48:57.127Z,100853.19
2023-02-08T09:51:31.135Z,100839.25
2023-02-08T09:54:02.846Z,100839.97
2023-02-08T09:56:36.358Z,100839.81
2023-02-08T09:59:06.410Z,100845.59
2023-02-08T10:01:37.354Z,100844.97
2023-02-08T10:04:16.893Z,100851.38
2023-02-08T10:06:45.291Z,100841.19
2023-02-08T10:09:16.397Z,100837.72
2023-02-08T10:11:52.278Z,100835.44
2023-02-08T10:14:36.250Z,100836.38
2023-02-08T10:17:14.493Z,100841.94
2023-02-08T10:19:55.769Z,100841.22
2023-02-08T10:22:30.999Z,100841.78
2023-02-08T10:25:26.542Z,100834.25
2023-02-08T10:28:08.681Z,100835.31
2023-02-08T10:30:41.975Z,100845.66
2023-02-08T10:33:19.421Z,100838.56
2023-02-08T10:35:50.565Z,100837.66
2023-02-08T10:38:25.412Z,100836.16
2023-02-08T10:40:56.876Z,100834.91
2023-02-08T10:43:30.538Z,100831.81
2023-02-08T10:46:04.099Z,100844.28
2023-02-08T10:48:47.972Z,100834.84
2023-02-08T10:51:21.639Z,100844.22
2023-02-08T10:53:50.324Z,100830.66
2023-02-08T10:56:38.829Z,100840.69
2023-02-08T10:59:13.292Z,100837.34
2023-02-08T11:01:42.310Z,100851.63
2023-02-08T11:04:13.410Z,100851.91
2023-02-08T11:06:43.502Z,100861.34
2023-02-08T11:09:25.656Z,100869.03
2023-02-08T11:11:55.249Z,100857.69
2023-02-08T11:14:40.992Z,100853.16
2023-02-08T11:17:26.723Z,100848.50
2023-02-08T11:19:56.923Z,100844.84
2023-02-08T11:22:31.396Z,100862.25
2023-02-08T11:25:01.096Z,100857.66
2023-02-08T11:27:35.219Z,100833.44
2023-02-08T11:30:23.305Z,100829.97
2023-02-08T11:33:19.286Z,100831.53
2023-02-08T11:36:03.504Z,100831.94
2023-02-08T11:38:34.193Z,100832.28
2023-02-08T11:41:04.487Z,100833.75
2023-02-08T11:43:35.442Z,100833.34
2023-02-08T11:46:05.121Z,100837.06
2023-02-08T11:48:41.452Z,100828.63
2023-02-08T11:51:10.742Z,100826.78
2023-02-08T11:53:41.696Z,100818.81
2023-02-08T11:56:18.790Z,100828.13
2023-02-08T11:59:06.919Z,100818.19
2023-02-08T12:01:37.070Z,100817.00
2023-02-08T12:04:09.536Z,100817.19
2023-02-08T12:07:07.446Z,100830.31
2023-02-08T12:10:17.133Z,100808.00
2023-02-08T12:12:55.240Z,100821.69
2023-02-08T12:15:32.942Z,100810.75
2023-02-08T12:18:10.636Z,100821.78
2023-02-08T12:20:42.220Z,100813.72
2023-02-08T12:23:37.255Z,100806.25
2023-02-08T12:26:14.154Z,100796.75
2023-02-08T12:28:51.963Z,100802.69
2023-02-08T12:31:27.352Z,100794.81
2023-02-08T12:34:05.719Z,100787.97
2023-02-08T12:37:11.662Z,100788.13
2023-02-08T12:40:03.008Z,100786.44
2023-02-08T12:42:41.667Z,100793.34
2023-02-08T12:45:24.576Z,100783.81
2023-02-08T12:48:04.734Z,100775.66
2023-02-08T12:50:39.881Z,100779.78
2023-02-08T12:53:19.090Z,100779.63
2023-02-08T12:55:47.953Z,100774.50
2023-02-08T12:58:26.303Z,100774.69
2023-02-08T13:00:56.564Z,100767.75
2023-02-08T13:03:35.479Z,100772.91
2023-02-08T13:06:06.424Z,100772.34
2023-02-08T13:08:41.685Z,100774.22
2023-02-08T13:11:20.079Z,100762.72
2023-02-08T13:13:59.985Z,100768.44
2023-02-08T13:16:31.482Z,100769.84
2023-02-08T13:19:09.437Z,100774.50
2023-02-08T13:21:41.988Z,100762.00
2023-02-08T13:24:33.230Z,100758.41
2023-02-08T13:27:01.858Z,100756.81
2023-02-08T13:29:31.132Z,100763.25
2023-02-08T13:32:02.444Z,100763.63
2023-02-08T13:34:34.968Z,100763.81
2023-02-08T13:37:13.477Z,100754.50
2023-02-08T13:39:50.409Z,100761.75
2023-02-08T13:42:24.794Z,100756.66
2023-02-08T13:44:55.675Z,100755.16
2023-02-08T13:47:26.958Z,100756.13
2023-02-08T13:50:01.829Z,100766.88
2023-02-08T13:52:52.403Z,100767.97
2023-02-08T13:55:46.172Z,100761.44
2023-02-08T13:58:52.943Z,100760.00
2023-02-08T14:01:22.788Z,100763.72
2023-02-08T14:04:17.445Z,100760.31
2023-02-08T14:06:50.155Z,100751.88
2023-02-08T14:09:23.538Z,100752.94
2023-02-08T14:11:57.731Z,100753.47
2023-02-08T14:14:28.689Z,100755.50
2023-02-08T14:17:12.748Z,100761.59
2023-02-08T14:19:44.372Z,100759.19
2023-02-08T14:22:19.094Z,100749.84
2023-02-08T14:24:49.983Z,100754.38
2023-02-08T14:27:25.234Z,100749.16
2023-02-08T14:29:59.012Z,100741.34
2023-02-08T14:32:29.365Z,100746.47
2023-02-08T14:35:04.081Z,100750.69
2023-02-08T14:37:34.451Z,100746.16
2023-02-08T14:40:40.506Z,100746.19
2023-02-08T14:43:32.344Z,100747.22
2023-02-08T14:46:34.319Z,100740.44
2023-02-08T14:49:03.403Z,100730.66
2023-02-08T14:51:35.419Z,100741.09
2023-02-08T14:54:12.184Z,100737.06
2023-02-08T14:56:50.573Z,100737.56
2023-02-08T14:59:22.584Z,100740.94
2023-02-08T15:01:53.826Z,100735.72
2023-02-08T15:04:22.696Z,100734.19
2023-02-08T15:07:16.914Z,100735.31
2023-02-08T15:09:46.132Z,100734.72
2023-02-08T15:12:21.696Z,100732.50
2023-02-08T15:14:53.903Z,100733.69
2023-02-08T15:17:30.939Z,100730.81
2023-02-08T15:20:00.284Z,100727.03
2023-02-08T15:22:33.937Z,100719.84
2023-02-08T15:25:13.042Z,100721.16
2023-02-08T15:27:48.321Z,100722.84
2023-02-08T15:30:34.034Z,100725.41
2023-02-08T15:33:04.614Z,100721.47
2023-02-08T15:35:34.743Z,100727.84
2023-02-08T15:38:05.897Z,100715.69
2023-02-08T15:40:36.081Z,100726.56
2023-02-08T15:43:10.499Z,100731.59
2023-02-08T15:45:41.108Z,100733.59
2023-02-08T15:48:09.877Z,100730.38
2023-02-08T15:50:38.570Z,100742.00
2023-02-08T15:53:08.685Z,100735.44
2023-02-08T15:55:41.383Z,100738.25
2023-02-08T15:58:16.151Z,100736.41
2023-02-08T16:00:47.463Z,100735.28
2023-02-08T16:03:19.661Z,100732.94
2023-02-08T16:05:51.515Z,100728.03
2023-02-08T16:08:23.060Z,100735.28
2023-02-08T16:10:54.150Z,100737.22
2023-02-08T16:13:25.329Z,100739.97
2023-02-08T16:16:07.127Z,100740.63
2023-02-08T16:18:42.091Z,100746.28
2023-02-08T16:21:24.920Z,100755.09
2023-02-08T16:23:58.213Z,100747.63
2023-02-08T16:26:28.869Z,100747.56
2023-02-08T16:28:59.811Z,100742.25
2023-02-08T16:31:31.140Z,100744.78
2023-02-08T16:34:01.813Z,100745.94
2023-02-08T16:36:34.899Z,100745.63
2023-02-08T16:39:37.658Z,100740.66
2023-02-08T16:42:15.983Z,100734.81
2023-02-08T16:45:03.548Z,100743.28
2023-02-08T16:47:39.206Z,100745.63
2023-02-08T16:50:08.538Z,100745.97
2023-02-08T16:52:37.535Z,100739.97
2023-02-08T16:55:06.770Z,100738.47
2023-02-08T16:57:42.777Z,100746.88
2023-02-08T17:00:20.093Z,100742.16
2023-02-08T17:02:50.324Z,100742.28
2023-02-08T17:05:20.466Z,100750.00
2023-02-08T17:07:49.951Z,100740.97
2023-02-08T17:10:23.435Z,100742.75
2023-02-08T17:12:53.387Z,100739.25
2023-02-08T17:15:27.006Z,100743.94
2023-02-08T17:17:57.881Z,100741.81
2023-02-08T17:20:28.684Z,100749.16
2023-02-08T17:23:00.122Z,100751.34
2023-02-08T17:25:28.921Z,100751.97
2023-02-08T17:27:59.461Z,100747.38
2023-02-08T17:30:30.755Z,100753.13
2023-02-08T17:33:00.716Z,100752.03
2023-02-08T17:35:30.027Z,100744.13
2023-02-08T17:37:59.489Z,100749.44
2023-02-08T17:40:31.312Z,100750.13
2023-02-08T17:43:00.370Z,100749.38
2023-02-08T17:45:30.006Z,100756.22
2023-02-08T17:48:02.216Z,100751.44
2023-02-08T17:50:30.654Z,100755.28
2023-02-08T17:52:59.349Z,100761.22
2023-02-08T17:55:27.625Z,100758.06
2023-02-08T17:57:56.172Z,100750.84
2023-02-08T18:00:25.369Z,100754.53
2023-02-08T18:02:55.904Z,100764.22
2023-02-08T18:05:28.000Z,100751.59
2023-02-08T18:07:57.874Z,100759.50
2023-02-08T18:10:26.527Z,100763.59
2023-02-08T18:12:55.497Z,100758.75
2023-02-08T18:15:24.229Z,100767.25
2023-02-08T18:17:52.967Z,100764.91
2023-02-08T18:20:21.640Z,100765.28
2023-02-08T18:22:51.461Z,100767.31
2023-02-08T18:25:20.725Z,100765.66
2023-02-08T18:27:50.293Z,100766.50
2023-02-08T18:30:19.117Z,100764.44
2023-02-08T18:32:47.800Z,100773.97
2023-02-08T18:35:16.410Z,100766.81
2023-02-08T18:37:46.626Z,100765.91
2023-02-08T18:40:17.599Z,100761.66
2023-02-08T18:42:46.314Z,100763.22
2023-02-08T18:45:15.354Z,100755.19
2023-02-08T18:47:43.866Z,100756.66
2023-02-08T18:50:12.831Z,100752.19
2023-02-08T18:52:41.459Z,100757.66
2023-02-08T18:55:09.897Z,100761.00
2023-02-08T18:57:40.288Z,100748.56
2023-02-08T19:00:09.879Z,100751.84
2023-02-08T19:02:39.619Z,100753.34
2023-02-08T19:05:08.933Z,100758.13
2023-02-08T19:07:39.070Z,100749.34
2023-02-08T19:10:08.693Z,100735.66
2023-02-08T19:12:38.500Z,100732.94
2023-02-08T19:15:09.343Z,100742.19
2023-02-08T19:17:37.914Z,100736.84
2023-02-08T19:20:06.979Z,100725.31
2023-02-08T19:22:35.648Z,100727.66
2023-02-08T19:25:04.063Z,100730.59
2023-02-08T19:27:32.917Z,100725.06
2023-02-08T19:30:01.254Z,100728.41
2023-02-08T19:32:31.348Z,100726.38
2023-02-08T19:34:59.838Z,100730.63
2023-02-08T19:37:28.615Z,100727.94
2023-02-08T19:39:57.056Z,100731.22
2023-02-08T19:42:25.632Z,100729.81
2023-02-08T19:44:53.925Z,100725.22
2023-02-08T19:47:43.455Z,100725.31
2023-02-08T19:50:16.252Z,100714.38
2023-02-08T19:52:45.145Z,100723.47
2023-02-08T19:55:13.768Z,100722.94
2023-02-08T19:57:42.358Z,100721.63
2023-02-08T20:00:22.977Z,100711.69
2023-02-08T20:02:53.136Z,100725.38
2023-02-08T20:05:22.830Z,100717.66
2023-02-08T20:07:54.831Z,100726.94
2023-02-08T20:10:23.228Z,100722.13
2023-02-08T20:12:52.246Z,100718.56
2023-02-08T20:15:20.442Z,100713.19
2023-02-08T20:17:51.840Z,100694.63
2023-02-08T20:20:21.543Z,100696.28
2023-02-08T20:22:51.657Z,100705.72
2023-02-08T20:25:20.245Z,100700.09
2023-02-08T20:27:49.322Z,100702.03
2023-02-08T20:30:18.295Z,100700.94
2023-02-08T20:32:47.341Z,100698.84
2023-02-08T20:35:15.914Z,100703.00
2023-02-08T20:37:45.033Z,100696.88
2023-02-08T20:40:15.687Z,100687.06
2023-02-08T20:42:44.213Z,100676.09
2023-02-08T20:45:14.497Z,100673.28
2023-02-08T20:47:46.861Z,100677.56
2023-02-08T20:50:19.107Z,100674.75
2023-02-08T20:52:49.293Z,100673.47
2023-02-08T20:55:20.041Z,100672.44
2023-02-08T20:57:48.805Z,100657.59
2023-02-08T21:00:17.632Z,100657.53
2023-02-08T21:02:46.344Z,100660.69
2023-02-08T21:05:15.720Z,100666.72
2023-02-08T21:07:44.431Z,100661.84
2023-02-08T21:10:13.292Z,100648.81
2023-02-08T21:12:43.573Z,100651.28
2023-02-08T21:15:12.270Z,100656.59
2023-02-08T21:17:41.298Z,100650.22
2023-02-08T21:20:12.096Z,100655.59
2023-02-08T21:22:40.691Z,100643.47
2023-02-08T21:25:10.275Z,100652.81
2023-02-08T21:27:38.815Z,100647.44
2023-02-08T21:30:09.522Z,100655.34
2023-02-08T21:32:38.041Z,100648.13
2023-02-08T21:35:07.132Z,100652.69
2023-02-08T21:37:35.765Z,100651.41
2023-02-08T21:40:04.113Z,100657.91
2023-02-08T21:42:34.421Z,100650.69
2023-02-08T21:45:02.774Z,100648.56
2023-02-08T21:47:32.842Z,100656.06
2023-02-08T21:50:18.918Z,100658.19
2023-02-08T21:53:05.553Z,100657.78
2023-02-08T21:55:33.948Z,100656.22
2023-02-08T21:58:02.531Z,100654.66
2023-02-08T22:00:31.455Z,100664.53
2023-02-08T22:03:02.028Z,100658.19
2023-02-08T22:05:30.728Z,100657.88
2023-02-08T22:08:00.506Z,100655.47
2023-02-08T22:10:30.680Z,100657.22
2023-02-08T22:12:59.665Z,100650.69
2023-02-08T22:15:29.730Z,100652.00
2023-02-08T22:17:59.804Z,100650.97
2023-02-08T22:20:30.282Z,100653.63
2023-02-08T22:22:59.057Z,100655.50
2023-02-08T22:25:27.398Z,100652.75
2023-02-08T22:27:56.142Z,100651.34
2023-02-08T22:30:25.647Z,100649.50
2023-02-08T22:32:54.744Z,100644.72
2023-02-08T22:35:23.040Z,100646.56
2023-02-08T22:37:53.078Z,100637.44
2023-02-08T22:40:23.025Z,100630.00
2023-02-08T22:42:51.806Z,100624.81
2023-02-08T22:45:20.169Z,100623.38
2023-02-08T22:47:48.951Z,100628.66
2023-02-08T22:50:17.451Z,100626.44
2023-02-08T22:52:46.168Z,100622.59
2023-02-08T22:55:16.254Z,100618.81
2023-02-08T22:57:45.466Z,100618.22
2023-02-08T23:00:16.502Z,100617.81
2023-02-08T23:02:45.203Z,100627.81
2023-02-08T23:05:14.676Z,100616.69
2023-02-08T23:07:43.315Z,100614.88
2023-02-08T23:10:12.857Z,100612.47
2023-02-08T23:12:42.762Z,100610.66
2023-02-08T23:15:12.043Z,100608.38
2023-02-08T23:17:40.630Z,100615.41
2023-02-08T23:20:10.069Z,100614.88
2023-02-08T23:22:39.257Z,100615.53
2023-02-08T23:25:08.125Z,100610.88
2023-02-08T23:27:37.692Z,100618.94
2023-02-08T23:30:09.660Z,100610.06
2023-02-08T23:32:38.767Z,100613.31
2023-02-08T23:35:08.129Z,100607.63
2023-02-08T23:37:36.402Z,100620.31
2023-02-08T23:40:06.438Z,100613.56
2023-02-08T23:42:34.756Z,100598.69
2023-02-08T23:45:03.648Z,100605.63
2023-02-08T23:47:33.411Z,100600.59
2023-02-08T23:50:02.052Z,100593.59
2023-02-08T23:52:30.558Z,100587.81
2023-02-08T23:54:59.166Z,100589.75
2023-02-08T23:57:29.659Z,100589.53
2023-02-08T23:59:59.802Z,100590.63
